Time;durP1;ratioP1;P1;durP2;ratioP2;P2;SDS_P1;SDS_P2;PMS_P1;PMS_P2;Temp;Humidity;BMP_temperature;BMP_pressure;BME280_temperature;BME280_humidity;BME280_pressure;Samples;Min_cycle;Max_cycle;Signal;HPM_P1;HPM_P2
2022/07/04 00:02:06;;;;;;;6.50;3.40;;;;;;;19.14;77.11;100570.33;105213;1282;94345;-86
2022/07/04 00:04:34;;;;;;;7.40;4.00;;;;;;;19.14;77.18;100567.82;105004;1282;138103;-86
2022/07/04 00:07:03;;;;;;;7.30;4.00;;;;;;;19.12;77.39;100563.39;105041;1284;109127;-86
2022/07/04 00:09:31;;;;;;;5.60;3.10;;;;;;;19.11;77.13;100565.27;105148;1282;100184;-86
2022/07/04 00:11:59;;;;;;;7.40;3.70;;;;;;;19.10;77.31;100568.77;105036;1282;139050;-84
2022/07/04 00:14:27;;;;;;;7.90;4.10;;;;;;;19.08;77.33;100564.75;105324;1282;94332;-81
2022/07/04 00:16:55;;;;;;;6.90;4.10;;;;;;;19.09;77.44;100566.32;105151;1282;140769;-84
2022/07/04 00:19:22;;;;;;;7.50;3.50;;;;;;;19.09;77.36;100567.24;105195;1282;108886;-84
2022/07/04 00:21:50;;;;;;;6.30;3.90;;;;;;;19.06;77.37;100562.86;105429;1282;98915;-85
2022/07/04 00:24:18;;;;;;;6.80;4.10;;;;;;;19.05;77.39;100560.40;105365;1282;140079;-85
2022/07/04 00:26:46;;;;;;;6.70;3.70;;;;;;;19.02;77.56;100553.72;105356;1282;94231;-85
2022/07/04 00:29:14;;;;;;;7.40;4.00;;;;;;;19.03;77.34;100553.27;105266;1282;138016;-85
2022/07/04 00:31:42;;;;;;;7.30;4.20;;;;;;;19.04;77.53;100550.38;105202;1282;107418;-86
2022/07/04 00:34:10;;;;;;;7.10;4.30;;;;;;;19.00;77.71;100545.77;105483;1282;140048;-86
2022/07/04 00:36:38;;;;;;;6.80;4.50;;;;;;;18.89;78.24;100544.40;105654;1282;109648;-86
2022/07/04 00:39:06;;;;;;;7.80;4.80;;;;;;;18.80;78.46;100544.21;106245;1282;94538;-85
2022/07/04 00:41:34;;;;;;;7.70;4.60;;;;;;;18.76;78.72;100541.92;107023;1282;139038;-85
2022/07/04 00:44:07;;;;;;;7.30;4.80;;;;;;;18.73;78.96;100538.49;106939;1282;107855;-85
2022/07/04 00:46:41;;;;;;;7.10;4.30;;;;;;;18.70;79.07;100533.10;104666;1282;140744;-85
2022/07/04 00:49:11;;;;;;;7.80;4.90;;;;;;;18.67;79.15;100533.64;104726;1282;109378;-85
2022/07/04 00:51:42;;;;;;;7.90;5.70;;;;;;;18.71;78.99;100533.02;104856;1282;94132;-84
2022/07/04 00:54:13;;;;;;;7.30;4.50;;;;;;;18.75;78.82;100528.34;104657;1282;140708;-84
2022/07/04 00:56:43;;;;;;;9.90;5.90;;;;;;;18.73;78.94;100530.94;104752;1282;108904;-85
2022/07/04 00:59:11;;;;;;;7.90;5.30;;;;;;;18.69;78.93;100529.02;105287;1282;138933;-86
2022/07/04 01:01:39;;;;;;;9.30;6.20;;;;;;;18.68;79.01;100525.13;107305;1282;106740;-86
2022/07/04 01:04:08;;;;;;;8.30;5.50;;;;;;;18.66;78.97;100523.25;107217;1282;138904;-87
2022/07/04 01:06:37;;;;;;;9.60;6.00;;;;;;;18.66;78.89;100520.39;106450;1282;95586;-85
2022/07/04 01:09:07;;;;;;;9.10;6.10;;;;;;;18.69;78.39;100523.98;105252;1282;108144;-87
2022/07/04 01:11:35;;;;;;;10.40;5.40;;;;;;;18.69;78.52;100522.38;105199;1284;139161;-85
2022/07/04 01:14:05;;;;;;;8.80;5.50;;;;;;;18.65;78.86;100524.90;105422;1284;109723;-84
2022/07/04 01:16:33;;;;;;;9.90;6.30;;;;;;;18.65;78.95;100524.91;105161;1282;141180;-85
2022/07/04 01:19:01;;;;;;;8.30;6.10;;;;;;;18.59;79.09;100517.39;105221;1284;95268;-85
2022/07/04 01:21:32;;;;;;;10.50;6.60;;;;;;;18.52;79.47;100517.42;105840;1282;108595;-85
2022/07/04 01:24:00;;;;;;;10.20;7.00;;;;;;;18.49;79.60;100520.30;105778;1282;139789;-86
2022/07/04 01:26:28;;;;;;;8.60;6.10;;;;;;;18.50;79.54;100521.12;106154;1282;109556;-86
2022/07/04 01:28:57;;;;;;;9.70;5.90;;;;;;;18.47;79.57;100522.38;107037;1282;138259;-86
2022/07/04 01:31:25;;;;;;;10.30;5.80;;;;;;;18.43;79.63;100524.21;107253;1282;92311;-86
2022/07/04 01:33:53;;;;;;;8.80;6.60;;;;;;;18.36;80.01;100522.30;105148;1282;106174;-85
2022/07/04 01:36:21;;;;;;;10.70;6.60;;;;;;;18.31;80.01;100522.92;104829;1284;139117;-85
2022/07/04 01:38:49;;;;;;;8.60;5.60;;;;;;;18.27;80.32;100524.77;105116;1284;107141;-85
2022/07/04 01:41:17;;;;;;;9.40;6.50;;;;;;;18.24;80.41;100529.59;105186;1282;139594;-85
2022/07/04 01:43:45;;;;;;;9.50;6.50;;;;;;;18.21;80.53;100528.48;105131;1282;94639;-85
2022/07/04 01:46:13;;;;;;;8.50;5.60;;;;;;;18.18;80.61;100534.44;105059;1284;139229;-85
2022/07/04 01:48:41;;;;;;;10.30;5.80;;;;;;;18.15;80.77;100530.08;105155;1284;98471;-85
2022/07/04 01:51:09;;;;;;;10.00;6.30;;;;;;;18.17;80.75;100534.30;105054;1284;109299;-84
2022/07/04 01:53:37;;;;;;;8.70;6.20;;;;;;;18.21;80.61;100530.84;105047;1284;139386;-84
2022/07/04 01:56:06;;;;;;;11.60;6.40;;;;;;;18.21;80.86;100528.89;105361;1282;94291;-84
2022/07/04 01:58:36;;;;;;;9.60;6.20;;;;;;;18.26;80.52;100529.13;105287;1284;138366;-86
2022/07/04 02:03:51;;;;;;;9.90;6.40;;;;;;;18.25;80.59;100523.47;105170;1284;109343;-85
2022/07/04 02:06:20;;;;;;;9.60;6.00;;;;;;;18.27;80.48;100523.66;105564;1282;139932;-85
2022/07/04 02:14:21;;;;;;;8.50;6.10;;;;;;;18.15;80.71;100528.13;105226;1284;99842;-85
2022/07/04 02:16:49;;;;;;;8.00;5.40;;;;;;;18.13;80.86;100527.16;105292;1282;138507;-85
2022/07/04 02:19:17;;;;;;;10.80;6.60;;;;;;;18.06;80.98;100524.50;105191;1284;94317;-84
2022/07/04 02:21:45;;;;;;;7.80;5.40;;;;;;;18.01;81.08;100524.95;105296;1282;94332;-87
2022/07/04 02:24:13;;;;;;;8.50;6.10;;;;;;;18.01;81.15;100526.75;105377;1282;139694;-87
2022/07/04 02:26:41;;;;;;;8.30;5.30;;;;;;;17.99;81.32;100522.92;105443;1282;99829;-86
2022/07/04 02:29:11;;;;;;;9.60;6.10;;;;;;;17.97;81.27;100523.38;105397;1284;140155;-84
2022/07/04 02:31:38;;;;;;;8.20;5.30;;;;;;;17.97;81.06;100523.19;105577;1282;94216;-84
2022/07/04 02:34:07;;;;;;;7.90;5.30;;;;;;;18.03;80.86;100528.27;105377;1282;138196;-87
2022/07/04 02:36:35;;;;;;;7.60;5.20;;;;;;;18.07;80.72;100526.06;105506;1282;109060;-85
2022/07/04 02:39:04;;;;;;;8.10;5.10;;;;;;;18.07;80.52;100523.17;105870;1283;99823;-85
2022/07/04 02:41:33;;;;;;;10.50;5.80;;;;;;;18.08;80.63;100518.46;105949;1282;139464;-84
2022/07/04 02:44:02;;;;;;;;;;;;;;;18.10;80.65;100517.27;106558;1282;93337;-85
2022/07/04 02:46:34;;;;;;;8.10;5.90;;;;;;;18.10;80.69;100521.05;106666;1282;123970;-85
2022/07/04 02:49:03;;;;;;;8.10;6.00;;;;;;;18.05;80.76;100521.70;106740;1282;106032;-85
2022/07/04 02:51:31;;;;;;;8.70;5.80;;;;;;;18.09;80.70;100519.51;105595;1282;99957;-87
2022/07/04 02:53:59;;;;;;;9.90;5.40;;;;;;;18.09;80.54;100521.29;105251;1282;138106;-84
2022/07/04 02:56:27;;;;;;;8.40;5.60;;;;;;;18.06;80.67;100520.20;105465;1283;94236;-85
2022/07/04 02:58:55;;;;;;;10.00;5.70;;;;;;;18.03;80.81;100522.67;105232;1282;140907;-85
2022/07/04 03:01:23;;;;;;;9.80;5.70;;;;;;;18.03;80.89;100522.86;105468;1282;107435;-85
2022/07/04 03:03:52;;;;;;;10.80;5.70;;;;;;;18.01;81.00;100522.22;105405;1282;100256;-86
2022/07/04 03:06:20;;;;;;;10.00;5.50;;;;;;;17.98;81.09;100520.42;105216;1283;140569;-85
2022/07/04 03:08:49;;;;;;;8.60;5.60;;;;;;;17.97;81.33;100523.88;105338;1282;94428;-86
2022/07/04 03:11:17;;;;;;;9.40;6.00;;;;;;;18.00;81.38;100526.27;105211;1282;138715;-85
2022/07/04 03:13:45;;;;;;;8.50;5.60;;;;;;;18.01;81.20;100527.84;105436;1282;107939;-85
2022/07/04 03:16:13;;;;;;;9.80;6.00;;;;;;;18.00;81.28;100532.53;105221;1282;138212;-85
2022/07/04 03:18:41;;;;;;;8.00;5.80;;;;;;;17.99;81.39;100532.75;105527;1282;108884;-85
2022/07/04 03:21:09;;;;;;;11.50;6.60;;;;;;;18.03;81.45;100537.02;105253;1282;94246;-85
2022/07/04 03:23:39;;;;;;;9.00;6.30;;;;;;;18.06;81.29;100535.78;105207;1282;138348;-85
2022/07/04 03:26:07;;;;;;;9.00;5.70;;;;;;;18.10;81.26;100535.75;105424;1282;108789;-85
2022/07/04 03:28:35;;;;;;;9.70;5.70;;;;;;;18.18;80.94;100537.31;105329;1282;139157;-85
2022/07/04 03:31:03;;;;;;;9.10;6.00;;;;;;;18.24;80.59;100537.90;105298;1282;108667;-85
2022/07/04 03:33:31;;;;;;;9.10;5.60;;;;;;;18.29;80.56;100540.65;105343;1282;94357;-86
2022/07/04 03:35:59;;;;;;;8.80;5.80;;;;;;;18.30;80.69;100541.68;105314;1282;138137;-85
2022/07/04 03:38:27;;;;;;;10.20;5.90;;;;;;;18.31;80.72;100542.89;105420;1282;108790;-85
2022/07/04 03:40:55;;;;;;;9.30;5.70;;;;;;;18.37;80.64;100540.38;105397;1282;139385;-84
2022/07/04 03:43:23;;;;;;;10.10;6.10;;;;;;;18.41;80.46;100544.99;105313;1282;107763;-84
2022/07/04 03:45:51;;;;;;;10.00;6.20;;;;;;;18.41;80.43;100545.55;105463;1282;94350;-84
2022/07/04 03:48:20;;;;;;;9.40;5.80;;;;;;;18.36;80.62;100544.92;105343;1282;139616;-85
2022/07/04 03:50:48;;;;;;;9.10;6.10;;;;;;;18.45;80.48;100545.70;105361;1282;107840;-86
2022/07/04 03:53:16;;;;;;;9.40;6.00;;;;;;;18.53;80.28;100547.02;105273;1282;138326;-87
2022/07/04 03:55:44;;;;;;;10.70;6.20;;;;;;;18.65;79.83;100546.02;105469;1282;109345;-86
2022/07/04 03:58:12;;;;;;;9.40;5.80;;;;;;;18.74;79.66;100541.33;105269;1282;139946;-84
2022/07/04 04:00:41;;;;;;;11.40;6.50;;;;;;;18.81;79.08;100540.91;105462;1281;94291;-84
2022/07/04 04:05:57;;;;;;;9.20;6.30;;;;;;;18.92;78.44;100539.77;104837;1282;139296;-85
2022/07/04 04:08:25;;;;;;;9.50;6.30;;;;;;;18.95;78.26;100537.77;105505;1282;109398;-86
2022/07/04 04:10:53;;;;;;;9.20;6.40;;;;;;;19.02;78.31;100539.35;105403;1282;141035;-85
2022/07/04 04:13:21;;;;;;;11.70;7.20;;;;;;;19.04;78.27;100539.20;105491;1282;94317;-85
2022/07/04 04:15:49;;;;;;;11.80;7.20;;;;;;;19.07;77.91;100537.80;105409;1282;108785;-85
2022/07/04 04:18:21;;;;;;;8.50;6.30;;;;;;;19.10;77.69;100529.14;105153;1282;137989;-84
2022/07/04 04:20:50;;;;;;;9.90;5.50;;;;;;;19.14;78.18;100525.84;105377;1282;108381;-85
2022/07/04 04:23:20;;;;;;;9.30;6.20;;;;;;;19.09;78.36;100520.96;105115;1282;139303;-85
2022/07/04 04:25:48;;;;;;;9.30;5.70;;;;;;;19.11;78.52;100525.49;105409;1282;94249;-85
2022/07/04 04:28:22;;;;;;;11.70;5.80;;;;;;;19.15;78.62;100522.91;105091;1282;139542;-85
2022/07/04 04:30:50;;;;;;;9.50;6.30;;;;;;;19.21;78.41;100523.46;105232;1282;98765;-85
2022/07/04 04:33:18;;;;;;;10.90;6.00;;;;;;;19.29;78.10;100524.61;105256;1282;109494;-86
2022/07/04 04:35:46;;;;;;;10.50;6.70;;;;;;;19.38;77.98;100520.44;105263;1282;139127;-86
2022/07/04 04:38:14;;;;;;;9.00;5.10;;;;;;;19.50;77.58;100520.98;105229;1282;94280;-87
2022/07/04 04:40:42;;;;;;;11.40;6.90;;;;;;;19.55;76.93;100518.84;105335;1282;138606;-86
2022/07/04 04:43:10;;;;;;;9.10;6.40;;;;;;;19.61;76.62;100516.70;105738;1282;99138;-85
2022/07/04 04:45:39;;;;;;;9.50;6.60;;;;;;;19.66;76.49;100517.30;105860;1282;109214;-86
2022/07/04 04:48:07;;;;;;;8.10;5.70;;;;;;;19.72;76.68;100519.99;105985;1282;140783;-86
2022/07/04 04:50:35;;;;;;;11.20;6.50;;;;;;;19.80;76.68;100520.39;106887;1282;92066;-86
2022/07/04 04:53:03;;;;;;;10.30;5.50;;;;;;;19.87;76.41;100518.17;106912;1282;139335;-86
2022/07/04 04:55:35;;;;;;;8.10;5.60;;;;;;;20.00;76.24;100512.15;105753;1282;97086;-85
2022/07/04 04:58:03;;;;;;;9.50;5.30;;;;;;;20.09;76.04;100511.34;105036;1282;139750;-86
2022/07/04 05:00:31;;;;;;;8.50;5.00;;;;;;;20.19;75.28;100515.08;105235;1282;94253;-86
2022/07/04 05:03:00;;;;;;;8.70;5.70;;;;;;;20.26;75.21;100518.05;105548;1282;94265;-85
2022/07/04 05:05:30;;;;;;;7.80;4.80;;;;;;;20.34;75.12;100513.73;105057;1282;139451;-85
2022/07/04 05:08:02;;;;;;;9.90;6.40;;;;;;;20.31;75.03;100516.80;105080;1282;99917;-85
2022/07/04 05:10:31;;;;;;;8.20;4.90;;;;;;;20.39;74.74;100525.68;105360;1282;138875;-85
2022/07/04 05:12:59;;;;;;;9.50;5.50;;;;;;;20.43;74.78;100525.06;105313;1282;94307;-85
2022/07/04 05:15:26;;;;;;;8.20;4.80;;;;;;;20.49;74.60;100523.89;105175;1282;94353;-84
2022/07/04 05:17:54;;;;;;;9.00;5.10;;;;;;;20.61;74.38;100521.14;105247;1282;138966;-85
2022/07/04 05:20:24;;;;;;;8.10;5.10;;;;;;;20.71;74.42;100518.02;105497;1282;98399;-85
2022/07/04 05:22:52;;;;;;;7.60;4.70;;;;;;;20.85;74.22;100515.48;105378;1282;138434;-85
2022/07/04 05:25:20;;;;;;;7.70;4.20;;;;;;;20.95;73.80;100518.56;105580;1281;93677;-86
2022/07/04 05:27:48;;;;;;;8.50;4.50;;;;;;;21.03;72.46;100517.99;105399;1281;94573;-85
2022/07/04 05:30:15;;;;;;;8.10;4.60;;;;;;;21.10;72.64;100519.35;105504;1282;138478;-86
2022/07/04 05:32:43;;;;;;;8.00;5.10;;;;;;;21.14;72.24;100526.67;105675;1281;100275;-85
2022/07/04 05:35:11;;;;;;;9.30;6.10;;;;;;;21.22;72.00;100528.64;105953;1282;138737;-86
2022/07/04 05:37:40;;;;;;;10.10;5.50;;;;;;;21.32;71.92;100526.50;106080;1282;94146;-86
2022/07/04 05:40:09;;;;;;;10.80;6.70;;;;;;;21.40;71.85;100526.53;106846;1282;138385;-86
2022/07/04 05:42:37;;;;;;;10.30;7.00;;;;;;;21.50;71.46;100528.15;107195;1282;106092;-86
2022/07/04 05:45:07;;;;;;;9.80;6.90;;;;;;;21.58;70.90;100525.67;106353;1279;98961;-85
2022/07/04 05:47:35;;;;;;;9.70;6.70;;;;;;;21.61;70.91;100522.73;104668;1282;140130;-82
2022/07/04 05:50:03;;;;;;;9.40;5.70;;;;;;;21.67;70.97;100524.84;104727;1282;94420;-84
2022/07/04 05:52:31;;;;;;;9.90;6.00;;;;;;;21.67;70.29;100528.64;104751;1282;138931;-83
2022/07/04 05:55:00;;;;;;;8.60;5.40;;;;;;;21.70;70.53;100528.77;105387;1282;108834;-85
2022/07/04 05:57:30;;;;;;;6.90;4.60;;;;;;;21.82;70.47;100525.05;107281;1280;99281;-86
2022/07/04 06:00:03;;;;;;;7.60;5.20;;;;;;;21.93;69.73;100528.21;105025;1281;138946;-86
2022/07/04 06:02:35;;;;;;;10.10;5.50;;;;;;;22.00;69.18;100527.94;105233;1282;94367;-86
2022/07/04 06:05:04;;;;;;;7.00;4.50;;;;;;;21.98;68.97;100526.80;105195;1282;140572;-85
2022/07/04 06:07:32;;;;;;;7.00;4.40;;;;;;;21.96;68.18;100521.68;105160;1282;108792;-84
2022/07/04 06:10:03;;;;;;;;;;;;;;;21.98;68.13;100523.52;105180;1282;139275;-85
2022/07/04 06:12:31;;;;;;;6.80;3.80;;;;;;;22.00;68.18;100525.16;104958;1282;107139;-86
2022/07/04 06:14:58;;;;;;;8.40;4.10;;;;;;;22.06;67.32;100523.13;105083;1282;94838;-84
2022/07/04 06:17:27;;;;;;;7.50;4.00;;;;;;;22.12;66.61;100519.67;105077;1282;139588;-85
2022/07/04 06:19:55;;;;;;;8.00;4.00;;;;;;;22.15;66.59;100515.63;105328;1281;107818;-85
2022/07/04 06:22:23;;;;;;;7.80;4.20;;;;;;;22.14;66.98;100509.37;105343;1282;138246;-87
2022/07/04 06:24:52;;;;;;;7.70;4.10;;;;;;;22.18;67.40;100507.98;105596;1282;108320;-84
2022/07/04 06:27:20;;;;;;;8.10;4.80;;;;;;;22.23;66.69;100505.98;105246;1282;94805;-85
2022/07/04 06:29:48;;;;;;;7.60;3.50;;;;;;;22.26;65.58;100501.25;105241;1282;138282;-85
2022/07/04 06:32:16;;;;;;;6.00;3.30;;;;;;;22.28;64.89;100494.02;105439;1281;108836;-86
2022/07/04 06:37:37;;;;;;;5.30;2.90;;;;;;;22.33;65.42;100490.39;105608;1282;106531;-86
2022/07/04 06:40:07;;;;;;;6.90;3.20;;;;;;;22.38;64.65;100490.08;105721;1282;139526;-86
2022/07/04 06:42:37;;;;;;;8.70;3.60;;;;;;;22.44;64.19;100484.06;106079;1282;93941;-88
2022/07/04 06:45:05;;;;;;;6.90;3.80;;;;;;;22.46;64.28;100479.86;106027;1282;107844;-85
2022/07/04 06:47:33;;;;;;;6.60;3.80;;;;;;;22.50;63.80;100479.46;106192;1283;137030;-86
2022/07/04 06:50:02;;;;;;;5.70;3.30;;;;;;;22.51;64.06;100479.70;106434;1282;108048;-86
2022/07/04 06:52:50;;;;;;;6.20;3.90;;;;;;;22.53;64.03;100477.70;105937;1282;138477;-84
2022/07/04 06:55:38;;;;;;;5.90;3.30;;;;;;;22.60;63.84;100481.04;105140;1282;94119;-87
2022/07/04 06:58:08;;;;;;;8.70;3.80;;;;;;;22.65;63.57;100482.13;104971;1282;139508;-84
2022/07/04 07:00:36;;;;;;;7.20;3.40;;;;;;;22.68;62.51;100482.92;105261;1282;97421;-84
2022/07/04 07:03:04;;;;;;;8.80;3.40;;;;;;;22.74;62.85;100487.23;105157;1282;108895;-85
2022/07/04 07:05:36;;;;;;;7.30;3.70;;;;;;;22.83;62.01;100486.66;105141;1282;139208;-84
2022/07/04 07:08:24;;;;;;;6.30;2.80;;;;;;;22.90;61.43;100486.52;105276;1282;94188;-85
2022/07/04 07:10:52;;;;;;;7.40;3.20;;;;;;;22.95;60.83;100483.27;105259;1282;138087;-84
2022/07/04 07:13:20;;;;;;;5.00;2.30;;;;;;;23.02;60.37;100481.47;105066;1282;234466;-84
2022/07/04 07:15:48;;;;;;;5.30;2.70;;;;;;;23.00;59.43;100481.44;105139;1282;106502;-85
2022/07/04 07:18:16;;;;;;;6.10;2.80;;;;;;;23.02;60.28;100482.16;104980;1281;138215;-84
2022/07/04 07:20:44;;;;;;;;;;;;;;;23.10;59.90;100479.59;105133;1282;94418;-84
2022/07/04 07:23:12;;;;;;;5.30;2.80;;;;;;;23.14;59.44;100476.02;104923;1282;126628;-84
2022/07/04 07:25:39;;;;;;;;;;;;;;;23.19;58.76;100480.91;104824;1282;99651;-84
2022/07/04 07:28:07;;;;;;;;;;;;;;;23.19;58.13;100475.82;105101;1282;127435;-84
2022/07/04 07:30:35;;;;;;;5.30;2.70;;;;;;;23.18;58.89;100476.29;104727;1282;94828;-84
2022/07/04 07:33:03;;;;;;;4.70;2.40;;;;;;;23.22;58.65;100480.64;105073;1281;94979;-84
2022/07/04 07:35:31;;;;;;;7.70;2.90;;;;;;;23.30;58.69;100479.17;104976;1282;140058;-84
2022/07/04 07:37:59;;;;;;;6.60;3.20;;;;;;;23.36;58.66;100481.77;104882;1282;99109;-84
2022/07/04 07:40:27;;;;;;;5.40;2.90;;;;;;;23.41;58.55;100480.26;104841;1282;138561;-82
2022/07/04 07:42:55;;;;;;;5.10;2.80;;;;;;;23.45;58.17;100483.17;105015;1282;94840;-82
2022/07/04 07:45:24;;;;;;;5.20;2.60;;;;;;;23.51;58.41;100476.59;105063;1282;94895;-85
2022/07/04 07:47:52;;;;;;;5.20;2.70;;;;;;;23.59;59.35;100475.80;104974;1282;139857;-85
2022/07/04 07:50:20;;;;;;;5.20;2.30;;;;;;;23.70;58.64;100475.63;105391;1282;99541;-85
2022/07/04 07:52:48;;;;;;;4.90;2.30;;;;;;;23.80;58.61;100474.95;105225;1282;138267;-84
2022/07/04 07:55:18;;;;;;;4.50;2.50;;;;;;;23.91;58.15;100476.28;105440;1282;95477;-85
2022/07/04 07:57:46;;;;;;;4.80;2.30;;;;;;;23.98;57.07;100478.77;105309;1282;94367;-84
2022/07/04 08:00:16;;;;;;;5.20;2.20;;;;;;;24.09;57.81;100485.55;105143;1282;139958;-82
2022/07/04 08:05:51;;;;;;;6.00;2.70;;;;;;;24.36;56.83;100482.29;105157;1280;140557;-82
2022/07/04 08:08:22;;;;;;;5.40;2.60;;;;;;;24.43;56.61;100486.03;105280;1281;93995;-83
2022/07/04 08:10:50;;;;;;;6.20;2.70;;;;;;;24.42;55.66;100486.30;105382;1282;138299;-83
2022/07/04 08:13:18;;;;;;;5.90;2.30;;;;;;;24.40;55.27;100484.27;105319;1284;108837;-87
2022/07/04 08:15:46;;;;;;;5.10;2.10;;;;;;;24.33;55.31;100483.95;105761;1281;97817;-82
2022/07/04 08:18:16;;;;;;;7.10;3.30;;;;;;;24.22;55.06;100485.55;105849;1282;138334;-84
2022/07/04 08:20:44;;;;;;;6.60;2.80;;;;;;;24.15;55.33;100485.46;106011;1282;94833;-83
2022/07/04 08:23:30;;;;;;;6.20;2.80;;;;;;;24.09;55.62;100485.17;105766;1282;138867;-84
2022/07/04 08:25:59;;;;;;;5.30;2.70;;;;;;;24.03;56.77;100481.10;105650;1281;108863;-86
2022/07/04 08:28:28;;;;;;;7.20;3.00;;;;;;;24.17;57.26;100479.59;105234;1284;139297;-85
2022/07/04 08:30:57;;;;;;;5.60;2.90;;;;;;;24.54;56.37;100475.35;105334;1282;109295;-84
2022/07/04 08:33:25;;;;;;;5.90;2.50;;;;;;;24.76;54.10;100473.11;105393;1282;94719;-85
2022/07/04 08:35:53;;;;;;;5.70;2.60;;;;;;;25.02;53.24;100473.09;105230;1281;138548;-84
2022/07/04 08:38:21;;;;;;;5.10;2.40;;;;;;;25.34;51.25;100474.33;105506;1281;107792;-85
2022/07/04 08:40:57;;;;;;;4.90;2.50;;;;;;;25.61;51.65;100473.45;105537;1282;138672;-85
2022/07/04 08:43:26;;;;;;;6.10;2.80;;;;;;;25.90;51.73;100469.44;105902;1282;107375;-85
2022/07/04 08:45:54;;;;;;;5.70;2.60;;;;;;;26.11;49.91;100460.14;106043;1282;94560;-86
2022/07/04 08:48:50;;;;;;;4.80;2.30;;;;;;;26.33;49.33;100465.63;105496;1282;94382;-85
2022/07/04 08:51:47;;;;;;;5.30;2.10;;;;;;;26.59;47.62;100472.13;105202;1282;109266;-86
2022/07/04 08:59:54;;;;;;;4.50;1.90;;;;;;;26.68;46.28;100471.43;105263;1282;138089;-87
2022/07/04 09:02:23;;;;;;;4.80;2.30;;;;;;;26.61;46.64;100474.17;105749;1281;94163;-84
2022/07/04 09:04:51;;;;;;;5.70;2.10;;;;;;;26.76;45.71;100468.92;105051;1281;138188;-90
2022/07/04 09:07:19;;;;;;;4.60;1.90;;;;;;;26.91;45.56;100467.20;105562;1281;99554;-86
2022/07/04 09:09:48;;;;;;;5.30;2.00;;;;;;;27.13;46.50;100464.87;105472;1282;109711;-88
2022/07/04 09:12:19;;;;;;;5.20;1.90;;;;;;;27.34;45.01;100463.45;105344;1282;139902;-83
2022/07/04 09:14:47;;;;;;;5.20;1.90;;;;;;;27.50;43.03;100462.31;105375;1282;93021;-83
2022/07/04 09:17:15;;;;;;;5.30;1.80;;;;;;;27.68;42.89;100462.55;105055;1281;138831;-84
2022/07/04 09:19:43;;;;;;;4.40;1.60;;;;;;;27.89;41.32;100467.83;105100;1282;100133;-85
2022/07/04 09:22:14;;;;;;;4.60;1.60;;;;;;;28.26;41.20;100478.82;105209;1282;138164;-84
2022/07/04 09:24:47;;;;;;;4.60;2.00;;;;;;;28.81;40.41;100477.66;105204;1282;94361;-83
2022/07/04 09:27:36;;;;;;;5.50;1.80;;;;;;;29.37;39.50;100478.18;105051;1282;94153;-82
2022/07/04 09:30:05;;;;;;;4.40;1.70;;;;;;;30.06;39.36;100483.84;105172;1282;138633;-83
2022/07/04 09:32:43;;;;;;;4.30;1.80;;;;;;;30.79;38.24;100486.82;105417;1282;99877;-87
2022/07/04 09:35:22;;;;;;;5.10;1.70;;;;;;;31.55;37.07;100479.58;105215;1282;139665;-85
2022/07/04 09:37:52;;;;;;;4.60;2.20;;;;;;;32.20;36.17;100479.46;105040;1281;94391;-85
2022/07/04 09:41:24;;;;;;;4.40;1.80;;;;;;;32.24;35.46;100484.20;104807;1281;139517;-85
2022/07/04 09:43:26;;;;;;;4.30;1.80;;;;;;;31.76;35.12;100479.37;105154;1282;109400;-84
2022/07/04 09:45:57;;;;;;;4.00;1.70;;;;;;;32.48;34.00;100475.58;105163;1282;99588;-85
2022/07/04 09:48:25;;;;;;;3.80;1.40;;;;;;;33.40;33.27;100481.77;105173;1282;138207;-84
2022/07/04 09:50:53;;;;;;;4.60;1.70;;;;;;;34.13;31.92;100477.98;105457;1282;94199;-84
2022/07/04 09:53:27;;;;;;;5.00;1.80;;;;;;;34.57;31.14;100481.54;106238;1281;139970;-85
2022/07/04 09:55:58;;;;;;;3.90;1.50;;;;;;;34.73;30.79;100486.38;107249;1282;108481;-86
2022/07/04 09:58:57;;;;;;;3.90;1.70;;;;;;;35.12;31.33;100481.65;106907;1282;137972;-83
2022/07/04 10:01:25;;;;;;;5.30;1.70;;;;;;;35.45;29.40;100486.12;105458;1281;109476;-85
2022/07/04 10:03:53;;;;;;;3.90;1.70;;;;;;;35.31;29.02;100483.52;105034;1282;94336;-84
2022/07/04 10:06:24;;;;;;;4.60;1.60;;;;;;;35.20;29.88;100476.20;104889;1282;139392;-85
2022/07/04 10:08:52;;;;;;;5.70;1.80;;;;;;;35.11;30.06;100474.27;105028;1282;109065;-83
2022/07/04 10:11:33;;;;;;;3.50;1.60;;;;;;;34.93;29.31;100481.11;104974;1282;139950;-84
2022/07/04 10:14:01;;;;;;;4.10;1.60;;;;;;;34.69;29.73;100475.97;105061;1282;107994;-84
2022/07/04 10:16:30;;;;;;;4.80;1.90;;;;;;;34.55;30.13;100468.62;107004;1282;139119;-85
2022/07/04 10:18:59;;;;;;;4.50;1.60;;;;;;;34.51;29.88;100469.55;107266;1282;92710;-83
2022/07/04 10:21:28;;;;;;;5.20;1.50;;;;;;;34.51;30.73;100471.98;106892;1282;108380;-85
2022/07/04 10:23:56;;;;;;;4.30;1.60;;;;;;;34.63;29.95;100469.89;104821;1282;140125;-84
2022/07/04 10:26:24;;;;;;;4.60;1.50;;;;;;;34.77;30.00;100472.84;105050;1281;109615;-84
2022/07/04 10:28:52;;;;;;;3.60;1.50;;;;;;;34.72;29.43;100475.31;104887;1282;139511;-85
2022/07/04 10:31:22;;;;;;;3.40;1.40;;;;;;;34.42;29.45;100473.43;105246;1282;94355;-85
2022/07/04 10:33:51;;;;;;;5.30;1.50;;;;;;;34.09;30.55;100469.22;105029;1282;107816;-85
2022/07/04 10:36:21;;;;;;;6.50;1.70;;;;;;;33.94;30.43;100469.29;105102;1282;140184;-84
2022/07/04 10:38:58;;;;;;;4.80;1.60;;;;;;;33.82;30.33;100474.67;105479;1282;109349;-84
2022/07/04 10:41:29;;;;;;;3.20;1.40;;;;;;;33.61;30.10;100479.55;104825;1282;138950;-84
2022/07/04 10:44:09;;;;;;;4.70;1.50;;;;;;;33.57;30.10;100477.91;105010;1282;94734;-83
2022/07/04 10:46:47;;;;;;;4.40;1.70;;;;;;;33.66;30.87;100479.23;105007;1282;140095;-85
2022/07/04 10:49:15;;;;;;;3.60;1.70;;;;;;;33.72;30.36;100474.35;104879;1282;98465;-85
2022/07/04 10:51:47;;;;;;;4.40;1.60;;;;;;;33.62;30.41;100465.71;104837;1282;109702;-85
2022/07/04 10:54:17;;;;;;;5.20;1.60;;;;;;;33.53;30.70;100455.41;105044;1282;138378;-86
2022/07/04 10:57:14;;;;;;;5.30;1.60;;;;;;;33.30;31.50;100457.77;105024;1282;94296;-86
2022/07/04 10:59:44;;;;;;;3.80;1.70;;;;;;;33.20;31.22;100459.58;104878;1282;138280;-84
2022/07/04 11:02:12;;;;;;;4.10;1.70;;;;;;;33.07;31.83;100461.45;104944;1282;100605;-85
2022/07/04 11:05:01;;;;;;;4.10;1.50;;;;;;;33.10;31.37;100461.55;104905;1282;140821;-87
2022/07/04 11:07:29;;;;;;;3.90;1.50;;;;;;;32.96;31.34;100456.05;104754;1282;94881;-86
2022/07/04 11:10:26;;;;;;;3.60;1.50;;;;;;;32.75;31.34;100454.85;104953;1282;94798;-83
2022/07/04 11:12:54;;;;;;;5.00;1.90;;;;;;;32.44;31.32;100455.20;104841;1282;108823;-86
2022/07/04 11:15:28;;;;;;;4.50;1.60;;;;;;;32.17;31.64;100456.88;104843;1282;100242;-84
2022/07/04 11:18:01;;;;;;;3.90;1.70;;;;;;;31.85;32.02;100460.44;104656;1281;139744;-85
2022/07/04 11:20:34;;;;;;;3.90;1.80;;;;;;;31.54;33.14;100454.91;104835;1282;94520;-82
2022/07/04 11:23:07;;;;;;;3.70;1.60;;;;;;;31.24;33.40;100454.14;104811;1282;139917;-83
2022/07/04 11:25:36;;;;;;;4.00;1.60;;;;;;;31.07;33.72;100454.23;104849;1282;108487;-84
2022/07/04 11:28:23;;;;;;;4.70;1.90;;;;;;;30.91;34.83;100452.63;104633;1282;140100;-83
2022/07/04 11:31:11;;;;;;;4.80;1.80;;;;;;;30.67;34.38;100445.06;105233;1282;107830;-83
2022/07/04 11:33:41;;;;;;;4.00;1.60;;;;;;;30.54;35.39;100447.04;104951;1282;94143;-83
2022/07/04 11:36:11;;;;;;;4.90;1.80;;;;;;;30.50;35.90;100450.98;104934;1282;137331;-84
2022/07/04 11:38:53;;;;;;;4.60;1.80;;;;;;;30.32;35.41;100443.19;105444;1282;107882;-82
2022/07/04 11:47:40;;;;;;;4.20;1.90;;;;;;;30.20;37.60;100424.29;104796;1282;139533;-83
2022/07/04 11:50:16;;;;;;;4.10;1.70;;;;;;;30.15;36.96;100427.02;105032;1282;94602;-84
2022/07/04 11:52:48;;;;;;;4.30;1.90;;;;;;;29.99;36.42;100428.23;104977;1282;139506;-84
2022/07/04 11:55:36;;;;;;;4.40;1.80;;;;;;;29.88;37.13;100430.88;105160;1282;97096;-83